createdAt,value
2018-01-30T00:01:23.842Z,64.80
2018-01-30T00:03:51.363Z,64.70
2018-01-30T00:06:18.913Z,64.20
2018-01-30T00:08:46.426Z,63.90
2018-01-30T00:11:14.702Z,63.80
2018-01-30T00:13:42.229Z,63.80
2018-01-30T00:16:09.754Z,63.60
2018-01-30T00:18:37.323Z,63.40
2018-01-30T00:21:04.842Z,63.20
2018-01-30T00:23:32.374Z,63.60
2018-01-30T00:25:59.943Z,62.60
2018-01-30T00:28:28.202Z,62.20
2018-01-30T00:30:55.746Z,62.20
2018-01-30T00:33:23.270Z,61.60
2018-01-30T00:35:50.778Z,61.60
2018-01-30T00:38:19.110Z,61.50
2018-01-30T00:40:46.627Z,61.60
2018-01-30T00:43:14.184Z,61.30
2018-01-30T00:45:41.712Z,61.00
2018-01-30T00:48:09.264Z,60.90
2018-01-30T00:50:36.778Z,60.80
2018-01-30T00:53:04.339Z,60.80
2018-01-30T00:55:31.900Z,60.80
2018-01-30T00:57:59.445Z,61.00
2018-01-30T01:00:27.063Z,61.20
2018-01-30T01:02:55.353Z,60.90
2018-01-30T01:05:23.647Z,60.90
2018-01-30T01:07:51.219Z,60.90
2018-01-30T01:10:18.808Z,61.00
2018-01-30T01:12:46.352Z,61.10
2018-01-30T01:15:13.906Z,61.20
2018-01-30T01:17:42.183Z,60.80
2018-01-30T01:20:09.687Z,60.80
2018-01-30T01:22:37.977Z,60.60
2018-01-30T01:25:05.481Z,60.50
2018-01-30T01:27:33.746Z,60.60
2018-01-30T01:30:01.274Z,60.50
2018-01-30T01:32:28.788Z,60.60
2018-01-30T01:34:56.353Z,60.60
2018-01-30T01:37:23.919Z,60.60
2018-01-30T01:39:52.186Z,60.40
2018-01-30T01:42:19.839Z,60.40
2018-01-30T01:44:47.361Z,60.50
2018-01-30T01:47:14.918Z,60.30
2018-01-30T01:49:42.522Z,60.20
2018-01-30T01:52:10.069Z,60.60
2018-01-30T01:54:37.613Z,60.30
2018-01-30T01:57:05.144Z,60.50
2018-01-30T01:59:32.797Z,60.50
2018-01-30T02:02:01.085Z,60.50
2018-01-30T02:04:29.381Z,60.90
2018-01-30T02:06:56.937Z,60.70
2018-01-30T02:09:24.505Z,61.10
2018-01-30T02:11:52.100Z,61.40
2018-01-30T02:14:19.641Z,61.70
2018-01-30T02:16:47.939Z,62.00
2018-01-30T02:19:15.515Z,62.10
2018-01-30T02:21:43.044Z,62.20
2018-01-30T02:24:10.592Z,62.40
2018-01-30T02:26:38.102Z,63.10
2018-01-30T02:29:05.664Z,62.40
2018-01-30T02:31:33.954Z,62.50
2018-01-30T02:34:01.487Z,62.50
2018-01-30T02:36:29.070Z,62.50
2018-01-30T02:38:56.594Z,62.80
2018-01-30T02:41:24.153Z,62.90
2018-01-30T02:43:51.760Z,63.10
2018-01-30T02:46:19.310Z,63.20
2018-01-30T02:48:46.851Z,63.20
2018-01-30T02:51:14.379Z,63.10
2018-01-30T02:53:41.901Z,63.20
2018-01-30T02:56:09.448Z,63.10
2018-01-30T02:58:36.973Z,63.00
2018-01-30T03:01:05.366Z,63.10
2018-01-30T03:03:32.961Z,63.20
2018-01-30T03:06:00.486Z,63.70
2018-01-30T03:08:28.760Z,64.00
2018-01-30T03:10:56.309Z,64.70
2018-01-30T03:13:23.813Z,64.20
2018-01-30T03:15:51.382Z,64.30
2018-01-30T03:18:18.890Z,64.50
2018-01-30T03:20:46.452Z,64.70
2018-01-30T03:23:14.017Z,64.70
2018-01-30T03:25:41.527Z,64.60
2018-01-30T03:28:09.163Z,64.60
2018-01-30T03:30:36.696Z,64.60
2018-01-30T03:33:04.226Z,64.60
2018-01-30T03:35:32.499Z,64.90
2018-01-30T03:38:00.321Z,64.90
2018-01-30T03:40:28.617Z,65.30
2018-01-30T03:42:56.900Z,65.50
2018-01-30T03:45:24.453Z,65.30
2018-01-30T03:47:52.045Z,65.60
2018-01-30T03:50:19.558Z,65.80
2018-01-30T03:52:47.938Z,66.10
2018-01-30T03:55:15.460Z,66.10
2018-01-30T03:57:43.037Z,66.00
2018-01-30T04:00:10.728Z,66.30
2018-01-30T04:02:38.257Z,66.20
2018-01-30T04:05:05.766Z,66.10
2018-01-30T04:07:33.350Z,65.90
2018-01-30T04:10:00.876Z,66.60
2018-01-30T04:12:29.154Z,66.80
2018-01-30T04:14:56.756Z,66.90
2018-01-30T04:17:25.065Z,67.10
2018-01-30T04:19:52.617Z,67.10
2018-01-30T04:22:20.178Z,67.10
2018-01-30T04:24:47.714Z,67.20
2018-01-30T04:27:15.282Z,67.10
2018-01-30T04:29:43.703Z,67.40
2018-01-30T04:32:12.036Z,67.40
2018-01-30T04:34:39.573Z,67.40
2018-01-30T04:37:07.123Z,67.20
2018-01-30T04:39:34.638Z,66.90
2018-01-30T04:42:02.208Z,66.80
2018-01-30T04:44:29.765Z,66.80
2018-01-30T04:46:58.051Z,66.80
2018-01-30T04:49:26.385Z,66.50
2018-01-30T04:51:53.998Z,66.50
2018-01-30T04:54:21.520Z,66.20
2018-01-30T04:56:49.833Z,66.50
2018-01-30T04:59:17.418Z,66.40
2018-01-30T05:01:44.952Z,66.20
2018-01-30T05:04:12.466Z,66.10
2018-01-30T05:06:40.518Z,66.30
2018-01-30T05:09:08.060Z,66.30
2018-01-30T05:11:36.356Z,66.20
2018-01-30T05:14:04.507Z,66.30
2018-01-30T05:16:32.041Z,66.40
2018-01-30T05:19:00.333Z,66.70
2018-01-30T05:21:27.888Z,66.70
2018-01-30T05:23:55.421Z,66.90
2018-01-30T05:26:23.759Z,68.10
2018-01-30T05:28:51.504Z,68.10
2018-01-30T05:31:19.817Z,67.70
2018-01-30T05:33:48.117Z,68.40
2018-01-30T05:36:17.723Z,68.00
2018-01-30T05:38:45.285Z,68.00
2018-01-30T05:41:13.913Z,67.90
2018-01-30T05:43:41.474Z,68.10
2018-01-30T05:46:08.987Z,68.40
2018-01-30T05:48:36.541Z,68.70
2018-01-30T05:51:04.079Z,68.80
2018-01-30T05:53:32.390Z,69.10
2018-01-30T05:56:00.693Z,69.10
2018-01-30T05:58:29.014Z,69.50
2018-01-30T06:00:56.602Z,69.40
2018-01-30T06:03:24.137Z,69.60
2018-01-30T06:05:52.908Z,70.00
2018-01-30T06:08:20.432Z,70.00
2018-01-30T06:10:48.757Z,70.40
2018-01-30T06:13:17.977Z,70.50
2018-01-30T06:15:45.847Z,70.60
2018-01-30T06:18:14.181Z,71.20
2018-01-30T06:20:41.811Z,71.00
2018-01-30T06:23:09.349Z,71.30
2018-01-30T06:25:37.666Z,71.40
2018-01-30T06:28:05.949Z,71.40
2018-01-30T06:30:33.466Z,71.30
2018-01-30T06:35:29.633Z,71.50
2018-01-30T06:37:57.193Z,71.80
2018-01-30T06:40:24.759Z,72.20
2018-01-30T06:42:52.464Z,71.70
2018-01-30T06:45:20.781Z,71.80
2018-01-30T06:47:49.090Z,72.30
2018-01-30T06:50:17.705Z,71.60
2018-01-30T06:52:46.448Z,71.70
2018-01-30T06:55:13.971Z,71.80
2018-01-30T06:57:41.810Z,71.70
2018-01-30T07:00:09.401Z,71.80
2018-01-30T07:02:36.941Z,71.70
2018-01-30T07:05:04.766Z,71.90
2018-01-30T07:07:33.110Z,71.70
2018-01-30T07:10:00.659Z,71.80
2018-01-30T07:12:28.218Z,71.90
2018-01-30T07:14:55.771Z,71.70
2018-01-30T07:17:23.344Z,71.70
2018-01-30T07:19:50.990Z,71.60
2018-01-30T07:22:18.552Z,71.60
2018-01-30T07:24:46.950Z,71.40
2018-01-30T07:27:15.841Z,71.30
2018-01-30T07:29:43.404Z,71.30
2018-01-30T07:32:10.966Z,71.00
2018-01-30T07:34:40.161Z,70.60
2018-01-30T07:37:07.694Z,70.50
2018-01-30T07:39:35.211Z,70.50
2018-01-30T07:42:02.795Z,70.70
2018-01-30T07:44:30.330Z,70.30
2018-01-30T07:46:57.885Z,69.10
2018-01-30T07:49:25.713Z,64.00
2018-01-30T07:51:54.052Z,59.00
2018-01-30T07:54:21.582Z,59.00
2018-01-30T07:56:49.161Z,56.70
2018-01-30T07:59:17.443Z,55.20
2018-01-30T08:01:45.023Z,55.10
2018-01-30T08:04:12.589Z,53.60
2018-01-30T08:06:40.873Z,53.10
2018-01-30T08:09:08.412Z,53.10
2018-01-30T08:11:35.932Z,53.60
2018-01-30T08:14:04.352Z,53.80
2018-01-30T08:16:31.908Z,53.90
2018-01-30T08:18:59.577Z,54.10
2018-01-30T08:21:27.118Z,54.20
2018-01-30T08:23:54.632Z,53.50
2018-01-30T08:26:23.002Z,51.60
2018-01-30T08:28:50.578Z,51.50
2018-01-30T08:31:18.951Z,51.10
2018-01-30T08:33:46.560Z,51.10
2018-01-30T08:36:14.102Z,50.80
2018-01-30T08:38:42.393Z,49.70
2018-01-30T08:41:09.976Z,49.70
2018-01-30T08:43:37.502Z,50.30
2018-01-30T08:46:05.029Z,51.30
2018-01-30T08:48:32.603Z,52.30
2018-01-30T08:51:01.073Z,52.90
2018-01-30T08:53:28.721Z,53.70
2018-01-30T08:55:56.308Z,53.90
2018-01-30T08:58:23.897Z,53.50
2018-01-30T09:00:51.447Z,53.60
2018-01-30T09:03:19.007Z,53.20
2018-01-30T09:05:46.571Z,52.80
2018-01-30T09:08:14.108Z,52.10
2018-01-30T09:10:41.731Z,51.80
2018-01-30T09:13:09.264Z,51.80
2018-01-30T09:15:39.590Z,51.20
2018-01-30T09:18:07.911Z,49.60
2018-01-30T09:20:35.452Z,49.60
2018-01-30T09:23:02.994Z,49.70
2018-01-30T09:25:30.510Z,49.50
2018-01-30T09:27:58.088Z,50.50
2018-01-30T09:30:25.611Z,51.20
2018-01-30T09:32:53.937Z,53.30
2018-01-30T09:35:21.473Z,53.30
2018-01-30T09:37:49.004Z,54.00
2018-01-30T09:40:16.626Z,54.70
2018-01-30T09:42:44.162Z,55.40
2018-01-30T09:45:12.505Z,56.30
2018-01-30T09:47:40.014Z,56.40
2018-01-30T09:50:07.775Z,56.50
2018-01-30T09:52:35.303Z,57.10
2018-01-30T09:55:02.847Z,57.30
2018-01-30T09:57:30.358Z,57.60
2018-01-30T09:59:58.020Z,58.10
2018-01-30T10:02:26.301Z,58.60
2018-01-30T10:04:53.829Z,58.60
2018-01-30T10:09:44.353Z,59.30
2018-01-30T10:12:11.979Z,59.40
2018-01-30T10:14:39.527Z,59.70
2018-01-30T10:17:07.140Z,60.00
2018-01-30T10:19:35.437Z,60.10
2018-01-30T10:22:02.977Z,59.90
2018-01-30T10:24:30.556Z,60.30
2018-01-30T10:26:58.092Z,59.80
2018-01-30T10:29:25.720Z,59.50
2018-01-30T10:31:53.402Z,58.50
2018-01-30T10:34:20.960Z,58.20
2018-01-30T10:36:48.490Z,57.80
2018-01-30T10:39:16.157Z,57.40
2018-01-30T10:41:43.673Z,57.40
2018-01-30T10:44:11.217Z,57.40
2018-01-30T10:46:38.778Z,57.30
2018-01-30T10:49:06.324Z,57.10
2018-01-30T10:51:33.937Z,56.40
2018-01-30T10:54:02.210Z,56.80
2018-01-30T10:56:29.790Z,56.90
2018-01-30T10:58:58.309Z,56.40
2018-01-30T11:01:27.006Z,55.50
2018-01-30T11:03:54.538Z,55.70
2018-01-30T11:06:22.077Z,55.00
2018-01-30T11:08:49.664Z,55.20
2018-01-30T11:11:17.237Z,55.20
2018-01-30T11:13:44.787Z,55.50
2018-01-30T11:16:12.435Z,56.10
2018-01-30T11:18:40.032Z,57.90
2018-01-30T11:21:07.738Z,58.70
2018-01-30T11:23:36.046Z,59.60
2018-01-30T11:26:03.616Z,59.60
2018-01-30T11:28:31.227Z,60.30
2018-01-30T11:30:58.786Z,59.90
2018-01-30T11:33:26.385Z,60.10
2018-01-30T11:35:54.008Z,60.00
2018-01-30T11:38:22.304Z,60.60
2018-01-30T11:40:50.587Z,61.30
2018-01-30T11:43:18.147Z,61.30
2018-01-30T11:45:45.680Z,62.00
2018-01-30T11:48:13.351Z,62.10
2018-01-30T11:50:40.915Z,62.60
2018-01-30T11:53:08.474Z,64.60
2018-01-30T11:55:36.770Z,65.30
2018-01-30T11:58:04.295Z,65.30
2018-01-30T12:00:31.890Z,65.70
2018-01-30T12:02:59.515Z,66.80
2018-01-30T12:05:27.095Z,67.20
2018-01-30T12:07:54.626Z,67.50
2018-01-30T12:10:22.938Z,68.30
2018-01-30T12:12:50.636Z,68.30
2018-01-30T12:15:18.186Z,68.20
2018-01-30T12:17:45.700Z,67.60
2018-01-30T12:20:14.069Z,67.60
2018-01-30T12:22:42.365Z,67.40
2018-01-30T12:25:10.668Z,67.30
2018-01-30T12:27:38.224Z,67.50
2018-01-30T12:30:05.824Z,67.60
2018-01-30T12:32:34.175Z,67.70
2018-01-30T12:35:02.489Z,67.10
2018-01-30T12:37:30.820Z,67.00
2018-01-30T12:39:58.372Z,67.10
2018-01-30T12:42:26.014Z,67.10
2018-01-30T12:44:53.698Z,66.50
2018-01-30T12:47:21.983Z,66.00
2018-01-30T12:49:50.326Z,65.70
2018-01-30T12:52:18.670Z,65.30
2018-01-30T12:54:46.946Z,65.20
2018-01-30T12:57:15.263Z,65.10
2018-01-30T12:59:42.849Z,65.20
2018-01-30T13:02:10.397Z,64.80
2018-01-30T13:04:38.773Z,62.40
2018-01-30T13:07:06.389Z,62.40
2018-01-30T13:09:34.684Z,61.70
2018-01-30T13:12:03.032Z,61.40
2018-01-30T13:14:31.151Z,61.30
2018-01-30T13:16:58.671Z,61.10
2018-01-30T13:19:27.001Z,59.90
2018-01-30T13:21:55.323Z,59.50
2018-01-30T13:24:23.648Z,59.30
2018-01-30T13:26:51.196Z,59.30
2018-01-30T13:29:19.538Z,59.60
2018-01-30T13:31:47.085Z,59.60
2018-01-30T13:34:14.632Z,59.70
2018-01-30T13:36:43.125Z,59.80
2018-01-30T13:39:10.681Z,59.70
2018-01-30T13:41:38.336Z,60.00
2018-01-30T13:44:06.115Z,60.40
2018-01-30T13:46:33.729Z,60.20
2018-01-30T13:49:01.292Z,60.50
2018-01-30T13:51:28.892Z,60.50
2018-01-30T13:53:56.491Z,60.50
2018-01-30T13:56:24.054Z,61.00
2018-01-30T13:58:51.693Z,60.80
2018-01-30T14:01:19.256Z,61.20
2018-01-30T14:03:46.922Z,61.20
2018-01-30T14:06:14.554Z,61.00
2018-01-30T14:08:42.110Z,60.80
2018-01-30T14:11:09.655Z,60.70
2018-01-30T14:13:37.975Z,62.90
2018-01-30T14:16:06.426Z,61.90
2018-01-30T14:18:33.945Z,62.90
2018-01-30T14:21:02.268Z,62.80
2018-01-30T14:23:30.563Z,61.50
2018-01-30T14:25:58.875Z,61.50
2018-01-30T14:28:26.605Z,61.60
2018-01-30T14:30:54.308Z,61.60
2018-01-30T14:33:21.884Z,61.50
2018-01-30T14:35:49.513Z,61.40
2018-01-30T14:38:17.177Z,61.20
2018-01-30T14:40:45.484Z,61.00
2018-01-30T14:43:13.172Z,61.00
2018-01-30T14:45:40.777Z,61.10
2018-01-30T14:48:08.321Z,61.10
2018-01-30T14:50:35.922Z,60.90
2018-01-30T14:53:03.443Z,60.80
2018-01-30T14:55:31.843Z,60.60
2018-01-30T14:57:59.346Z,60.60
2018-01-30T15:00:26.964Z,61.10
2018-01-30T15:02:54.566Z,61.30
2018-01-30T15:05:22.137Z,61.60
2018-01-30T15:07:49.832Z,61.80
2018-01-30T15:10:17.573Z,63.80
2018-01-30T15:12:45.218Z,63.80
2018-01-30T15:15:12.849Z,64.10
2018-01-30T15:17:41.154Z,65.30
2018-01-30T15:20:08.690Z,65.30
2018-01-30T15:22:36.248Z,66.20
2018-01-30T15:25:04.537Z,66.90
2018-01-30T15:27:32.840Z,66.50
2018-01-30T15:30:01.176Z,67.10
2018-01-30T15:32:28.778Z,67.00
2018-01-30T15:34:56.330Z,67.00
2018-01-30T15:37:23.849Z,67.60
2018-01-30T15:39:51.433Z,67.90
2018-01-30T15:42:18.975Z,68.50
2018-01-30T15:44:47.421Z,68.30
2018-01-30T15:47:15.813Z,67.80
2018-01-30T15:49:44.232Z,67.50
2018-01-30T15:52:12.627Z,67.40
2018-01-30T15:54:40.166Z,67.40
2018-01-30T15:57:07.760Z,67.30
2018-01-30T15:59:35.278Z,67.00
2018-01-30T16:02:02.836Z,67.20
2018-01-30T16:04:31.421Z,67.30
2018-01-30T16:06:59.024Z,67.10
2018-01-30T16:09:26.749Z,67.50
2018-01-30T16:11:55.033Z,66.80
2018-01-30T16:14:23.463Z,66.70
2018-01-30T16:16:51.020Z,66.70
2018-01-30T16:19:19.357Z,66.40
2018-01-30T16:21:47.006Z,66.50
2018-01-30T16:24:14.624Z,66.50
2018-01-30T16:26:42.157Z,66.30
2018-01-30T16:29:09.735Z,66.00
2018-01-30T16:31:37.289Z,65.90
2018-01-30T16:34:04.807Z,66.10
2018-01-30T16:36:33.328Z,66.10
2018-01-30T16:39:01.429Z,66.10
2018-01-30T16:41:29.007Z,65.80
2018-01-30T16:43:56.571Z,66.00
2018-01-30T16:46:24.135Z,65.30
2018-01-30T16:48:51.703Z,65.90
2018-01-30T16:51:19.248Z,65.90
2018-01-30T16:53:46.871Z,66.10
2018-01-30T16:56:14.437Z,66.20
2018-01-30T16:58:41.989Z,65.80
2018-01-30T17:01:10.295Z,64.80
2018-01-30T17:03:37.827Z,64.90
2018-01-30T17:06:05.399Z,64.70
2018-01-30T17:08:33.012Z,64.00
2018-01-30T17:11:00.589Z,63.30
2018-01-30T17:13:28.287Z,63.10
2018-01-30T17:15:55.807Z,63.00
2018-01-30T17:18:23.370Z,62.80
2018-01-30T17:20:51.681Z,62.60
2018-01-30T17:23:19.271Z,62.50
2018-01-30T17:25:46.856Z,63.20
2018-01-30T17:28:15.272Z,63.90
2018-01-30T17:30:43.585Z,64.10
2018-01-30T17:33:11.273Z,64.10
2018-01-30T17:35:39.608Z,62.90
2018-01-30T17:38:08.437Z,63.60
2018-01-30T17:40:36.007Z,63.60
2018-01-30T17:43:03.604Z,63.50
2018-01-30T17:45:31.137Z,63.70
2018-01-30T17:47:59.460Z,64.70
2018-01-30T17:50:27.841Z,65.60
2018-01-30T17:52:55.462Z,65.50
2018-01-30T17:55:22.988Z,66.30
2018-01-30T17:57:50.596Z,67.70
2018-01-30T18:00:18.176Z,68.40
2018-01-30T18:02:45.730Z,69.20
2018-01-30T18:05:14.197Z,70.70
2018-01-30T18:07:41.726Z,70.70
2018-01-30T18:10:10.465Z,70.90
2018-01-30T18:12:38.024Z,71.00
2018-01-30T18:15:05.578Z,71.10
2018-01-30T18:17:33.121Z,71.10
2018-01-30T18:20:00.668Z,71.20
2018-01-30T18:22:28.305Z,71.10
2018-01-30T18:24:55.864Z,71.50
2018-01-30T18:27:23.431Z,71.40
2018-01-30T18:29:51.738Z,71.40
2018-01-30T18:32:19.326Z,71.50
2018-01-30T18:34:46.910Z,71.20
2018-01-30T18:37:15.253Z,71.40
2018-01-30T18:39:42.820Z,71.40
2018-01-30T18:42:11.049Z,71.30
2018-01-30T18:44:38.665Z,71.50
2018-01-30T18:47:06.332Z,71.50
2018-01-30T18:49:33.892Z,71.50
2018-01-30T18:52:01.458Z,71.50
2018-01-30T18:54:29.820Z,71.40
2018-01-30T18:56:57.403Z,71.80
2018-01-30T18:59:24.968Z,72.00
2018-01-30T19:01:52.727Z,72.00
2018-01-30T19:04:20.287Z,71.70
2018-01-30T19:06:48.725Z,71.60
2018-01-30T19:09:16.293Z,71.60
2018-01-30T19:11:43.836Z,71.60
2018-01-30T19:14:11.525Z,71.60
2018-01-30T19:16:39.828Z,71.90
2018-01-30T19:19:07.367Z,71.90
2018-01-30T19:21:35.676Z,71.70
2018-01-30T19:24:03.236Z,71.60
2018-01-30T19:26:30.852Z,71.50
2018-01-30T19:28:58.435Z,71.20
2018-01-30T19:31:25.984Z,71.10
2018-01-30T19:33:53.645Z,71.00
2018-01-30T19:36:21.268Z,70.90
2018-01-30T19:38:48.846Z,71.00
2018-01-30T19:41:16.422Z,70.90
2018-01-30T19:43:44.297Z,71.00
2018-01-30T19:46:11.841Z,71.00
2018-01-30T19:48:39.358Z,71.00
2018-01-30T19:51:07.125Z,70.90
2018-01-30T19:53:38.187Z,71.00
2018-01-30T19:56:06.071Z,71.00
2018-01-30T19:58:34.816Z,71.10
2018-01-30T20:01:03.972Z,71.30
2018-01-30T20:10:24.733Z,71.70
2018-01-30T20:15:30.783Z,71.70
2018-01-30T20:17:58.321Z,72.00
2018-01-30T20:20:26.671Z,72.10
2018-01-30T20:22:54.577Z,72.00
2018-01-30T20:25:22.259Z,72.00
2018-01-30T20:27:49.839Z,71.90
2018-01-30T20:30:18.168Z,72.10
2018-01-30T20:32:45.749Z,72.30
2018-01-30T20:35:13.293Z,72.20
2018-01-30T20:37:40.829Z,72.10
2018-01-30T20:40:08.498Z,72.40
2018-01-30T20:42:36.800Z,72.40
2018-01-30T20:45:04.722Z,72.40
2018-01-30T20:47:32.347Z,72.30
2018-01-30T20:49:59.904Z,72.50
2018-01-30T20:52:27.509Z,72.60
2018-01-30T20:54:55.996Z,72.40
2018-01-30T20:57:23.542Z,72.20
2018-01-30T20:59:51.111Z,71.70
2018-01-30T21:02:19.730Z,72.00
2018-01-30T21:04:47.433Z,71.70
2018-01-30T21:07:14.973Z,71.60
2018-01-30T21:09:43.279Z,70.70
2018-01-30T21:12:10.852Z,70.80
2018-01-30T21:14:56.523Z,70.90
2018-01-30T21:17:24.111Z,71.00
2018-01-30T21:19:51.664Z,71.20
2018-01-30T21:22:19.230Z,71.40
2018-01-30T21:24:47.584Z,71.50
2018-01-30T21:27:15.184Z,72.30
2018-01-30T21:29:42.817Z,71.80
2018-01-30T21:32:10.345Z,71.90
2018-01-30T21:34:37.873Z,72.20
2018-01-30T21:37:06.746Z,72.30
2018-01-30T21:39:34.304Z,72.20
2018-01-30T21:42:01.863Z,72.00
2018-01-30T21:44:30.216Z,72.00
2018-01-30T21:46:57.760Z,72.00
2018-01-30T21:49:25.318Z,72.00
2018-01-30T21:51:53.823Z,72.20
2018-01-30T21:54:21.339Z,72.10
2018-01-30T21:56:48.882Z,72.30
2018-01-30T21:59:16.497Z,72.10
2018-01-30T22:01:44.061Z,71.70
2018-01-30T22:04:11.585Z,71.70
2018-01-30T22:06:39.899Z,71.00
2018-01-30T22:09:07.443Z,71.00
2018-01-30T22:11:35.237Z,70.80
2018-01-30T22:14:02.823Z,71.10
2018-01-30T22:16:30.392Z,71.10
2018-01-30T22:18:57.921Z,71.20
2018-01-30T22:21:25.602Z,71.10
2018-01-30T22:23:54.033Z,71.00
2018-01-30T22:26:22.356Z,70.70
2018-01-30T22:28:49.916Z,70.70
2018-01-30T22:31:17.599Z,70.60
2018-01-30T22:33:45.964Z,70.60
2018-01-30T22:36:14.492Z,70.80
2018-01-30T22:38:42.043Z,70.80
2018-01-30T22:41:10.390Z,70.90
2018-01-30T22:43:37.920Z,71.00
2018-01-30T22:46:06.365Z,71.60
